Time;durP1;ratioP1;P1;durP2;ratioP2;P2;SDS_P1;SDS_P2;PMS_P1;PMS_P2;Temp;Humidity;BMP_temperature;BMP_pressure;BME280_temperature;BME280_humidity;BME280_pressure;Samples;Min_cycle;Max_cycle;Signal;HPM_P1;HPM_P2
2022/05/08 00:01:01;;;;;;;10.60;9.27;;;;;;;11.98;84.37;98593.31;5053267;28;20218;-70
2022/05/08 00:03:27;;;;;;;12.77;9.30;;;;;;;11.88;84.97;98597.47;5053066;28;20215;-70
2022/05/08 00:05:53;;;;;;;11.10;9.80;;;;;;;11.92;84.24;98596.84;5052962;28;20223;-70
2022/05/08 00:08:20;;;;;;;9.93;9.10;;;;;;;11.95;84.87;98588.44;5052972;28;20293;-70
2022/05/08 00:10:46;;;;;;;10.10;9.20;;;;;;;11.92;85.19;98591.53;5052621;28;20552;-70
2022/05/08 00:13:14;;;;;;;11.70;8.87;;;;;;;11.90;85.05;98590.94;5052893;28;20234;-70
2022/05/08 00:15:41;;;;;;;11.43;9.73;;;;;;;11.86;85.37;98588.91;5052956;28;20239;-70
2022/05/08 00:18:08;;;;;;;10.70;9.67;;;;;;;11.83;85.75;98589.31;5052985;28;20222;-70
2022/05/08 00:20:34;;;;;;;10.97;9.87;;;;;;;11.73;86.53;98594.28;5052763;28;20254;-70
2022/05/08 00:23:01;;;;;;;11.83;9.87;;;;;;;11.74;85.88;98595.91;5052730;28;20214;-70
2022/05/08 00:25:27;;;;;;;10.97;9.93;;;;;;;11.79;85.66;98588.94;5054196;28;20211;-71
2022/05/08 00:27:54;;;;;;;11.60;9.97;;;;;;;11.80;85.70;98585.22;5056384;28;20278;-70
2022/05/08 00:30:20;;;;;;;10.50;9.60;;;;;;;11.76;86.03;98594.69;5056452;28;20209;-70
2022/05/08 00:32:47;;;;;;;10.43;9.43;;;;;;;11.70;86.37;98589.41;5056407;28;20235;-70
2022/05/08 00:35:13;;;;;;;12.63;10.90;;;;;;;11.74;86.41;98595.91;5056443;28;20203;-70
2022/05/08 00:37:40;;;;;;;11.30;10.17;;;;;;;11.69;85.95;98596.56;5055990;28;20308;-70
2022/05/08 00:40:07;;;;;;;11.13;10.17;;;;;;;11.64;86.35;98598.25;5055996;28;20672;-70
2022/05/08 00:42:33;;;;;;;9.93;8.93;;;;;;;11.64;84.93;98599.06;5054817;28;20658;-70
2022/05/08 00:45:00;;;;;;;10.37;9.33;;;;;;;11.67;85.05;98587.97;5056229;28;20214;-70
2022/05/08 00:47:26;;;;;;;10.27;9.37;;;;;;;11.89;83.70;98597.28;5055849;28;20230;-70
2022/05/08 00:49:54;;;;;;;9.57;8.63;;;;;;;11.74;84.38;98596.75;5056377;28;20208;-70
2022/05/08 00:52:20;;;;;;;9.43;8.27;;;;;;;11.44;86.11;98594.81;5055480;28;20230;-70
2022/05/08 00:54:47;;;;;;;10.13;9.10;;;;;;;11.27;86.92;98600.59;5056007;28;20217;-70
2022/05/08 00:57:14;;;;;;;10.00;9.00;;;;;;;11.22;88.18;98602.28;5054558;28;20236;-70
2022/05/08 00:59:40;;;;;;;9.60;8.70;;;;;;;11.13;88.66;98595.56;5055620;28;20567;-70
2022/05/08 01:02:06;;;;;;;10.73;9.70;;;;;;;11.10;89.21;98596.75;5055616;28;20197;-70
2022/05/08 01:04:33;;;;;;;11.37;9.67;;;;;;;11.13;89.86;98600.88;5055804;28;20572;-70
2022/05/08 01:06:59;;;;;;;9.67;8.77;;;;;;;11.12;89.43;98601.06;5055702;28;20551;-70
2022/05/08 01:09:26;;;;;;;11.63;9.00;;;;;;;11.04;90.39;98600.25;5055754;28;20208;-70
2022/05/08 01:11:52;;;;;;;10.27;9.30;;;;;;;11.07;90.60;98604.34;5055684;28;20212;-70
2022/05/08 01:14:18;;;;;;;10.30;9.30;;;;;;;10.96;91.64;98594.38;5055606;28;20588;-70
2022/05/08 01:16:45;;;;;;;10.97;9.87;;;;;;;11.05;91.66;98593.13;5055370;28;20660;-70
2022/05/08 01:19:11;;;;;;;11.77;10.67;;;;;;;11.09;92.16;98591.66;5055640;28;20209;-70
2022/05/08 01:21:42;;;;;;;11.77;10.67;;;;;;;11.05;91.61;98588.59;5055568;28;20231;-70
2022/05/08 01:24:14;;;;;;;13.93;10.90;;;;;;;11.09;92.01;98591.66;5055401;28;20216;-70
2022/05/08 01:26:40;;;;;;;11.70;10.60;;;;;;;11.01;92.21;98584.72;5055156;28;20660;-70
2022/05/08 01:29:07;;;;;;;11.83;10.73;;;;;;;11.07;92.93;98587.59;5055302;28;20735;-70
2022/05/08 01:31:34;;;;;;;12.50;11.20;;;;;;;11.08;92.64;98584.69;5054950;28;20570;-71
2022/05/08 01:34:01;;;;;;;13.07;11.30;;;;;;;10.99;93.00;98578.78;5055190;28;20632;-70
2022/05/08 01:36:27;;;;;;;13.07;11.63;;;;;;;10.96;93.72;98581.06;5054877;28;20220;-70
2022/05/08 01:38:55;;;;;;;12.57;11.37;;;;;;;10.95;93.36;98576.78;5054835;28;20225;-70
2022/05/08 01:41:21;;;;;;;14.10;12.70;;;;;;;10.99;93.32;98583.28;5055080;28;20259;-70
2022/05/08 01:43:47;;;;;;;13.77;12.50;;;;;;;10.85;93.68;98581.69;5055050;28;20208;-70
2022/05/08 01:46:14;;;;;;;12.83;11.53;;;;;;;10.78;94.90;98584.34;5055074;28;20220;-70
2022/05/08 01:48:39;;;;;;;13.53;12.20;;;;;;;10.76;94.53;98580.25;5054917;28;20232;-70
2022/05/08 01:51:05;;;;;;;13.23;11.93;;;;;;;10.75;94.78;98583.94;5054924;28;20564;-70
2022/05/08 01:53:35;;;;;;;12.77;11.67;;;;;;;10.78;95.48;98578.22;5054520;28;20232;-70
2022/05/08 01:56:04;;;;;;;13.03;11.83;;;;;;;10.73;95.25;98576.19;5054978;28;20220;-70
2022/05/08 01:58:31;;;;;;;13.97;12.77;;;;;;;10.81;94.92;98575.97;5054771;28;20225;-70
2022/05/08 02:01:00;;;;;;;14.90;13.40;;;;;;;10.82;95.36;98580.25;5054860;28;20205;-70
2022/05/08 02:03:27;;;;;;;15.50;13.87;;;;;;;10.78;96.24;98573.72;5054786;28;20201;-69
2022/05/08 02:05:53;;;;;;;14.73;13.27;;;;;;;10.82;96.04;98577.59;5054714;28;20205;-70
2022/05/08 02:08:20;;;;;;;14.13;12.70;;;;;;;10.82;96.59;98577.59;5054579;28;20221;-70
2022/05/08 02:10:47;;;;;;;14.50;13.13;;;;;;;10.72;96.45;98581.69;5054626;28;20206;-70
2022/05/08 02:13:14;;;;;;;14.70;13.17;;;;;;;10.78;96.13;98581.69;5054510;28;20221;-70
2022/05/08 02:15:40;;;;;;;14.00;12.73;;;;;;;10.78;96.80;98578.22;5054531;28;20205;-70
2022/05/08 02:18:09;;;;;;;14.23;12.73;;;;;;;10.66;96.61;98580.69;5054452;28;20248;-70
2022/05/08 02:20:36;;;;;;;14.30;12.73;;;;;;;10.57;97.59;98575.78;5054442;28;20209;-70
2022/05/08 02:23:03;;;;;;;13.93;12.50;;;;;;;10.58;97.87;98578.25;5054623;28;20212;-70
2022/05/08 02:25:31;;;;;;;15.00;13.50;;;;;;;10.59;98.25;98576.41;5054365;28;20205;-70
2022/05/08 02:27:57;;;;;;;14.80;13.17;;;;;;;10.75;98.40;98574.16;5054244;28;20256;-70
2022/05/08 02:30:25;;;;;;;17.13;13.77;;;;;;;10.63;98.78;98582.94;5054249;28;20213;-70
2022/05/08 02:32:53;;;;;;;16.00;14.53;;;;;;;10.62;99.70;98583.97;5054019;28;20248;-70
2022/05/08 02:35:21;;;;;;;16.63;15.13;;;;;;;10.67;99.54;98570.88;5054886;28;20213;-70
2022/05/08 02:37:50;;;;;;;16.90;15.30;;;;;;;10.64;100.00;98577.41;5053866;28;20724;-70
2022/05/08 02:40:17;;;;;;;16.10;14.50;;;;;;;10.63;100.00;98572.31;5054012;28;20255;-70
2022/05/08 02:42:43;;;;;;;16.37;14.77;;;;;;;10.57;100.00;98583.78;5054354;28;20533;-72
2022/05/08 02:45:10;;;;;;;15.70;14.30;;;;;;;10.60;100.00;98584.16;5053920;28;20209;-70
2022/05/08 02:47:37;;;;;;;16.50;15.07;;;;;;;10.52;100.00;98583.56;5054172;28;20228;-70
2022/05/08 02:50:05;;;;;;;15.97;14.37;;;;;;;10.53;100.00;98582.53;5052747;28;20684;-70
2022/05/08 02:52:32;;;;;;;16.87;15.40;;;;;;;10.51;100.00;98587.25;5053709;28;20225;-70
2022/05/08 02:58:32;;;;;;;15.73;14.33;;;;;;;10.50;100.00;98573.13;5053871;28;20219;-70
2022/05/08 03:00:49;;;;;;;16.77;15.17;;;;;;;10.46;100.00;98573.78;5006362;28;20209;-70
2022/05/08 03:03:16;;;;;;;15.83;14.33;;;;;;;10.32;100.00;98577.47;5053735;28;20233;-70
2022/05/08 03:05:44;;;;;;;16.37;14.77;;;;;;;10.29;100.00;98580.50;5053626;28;20210;-70
2022/05/08 03:08:14;;;;;;;17.30;15.77;;;;;;;10.29;100.00;98576.03;5053224;28;20240;-70
2022/05/08 03:13:25;;;;;;;16.73;15.13;;;;;;;10.45;100.00;98588.88;5053517;28;20205;-70
2022/05/08 03:15:52;;;;;;;16.90;15.20;;;;;;;10.19;100.00;98596.84;5053416;28;20266;-70
2022/05/08 03:18:19;;;;;;;15.23;13.93;;;;;;;10.30;100.00;98598.91;5053438;28;20228;-70
2022/05/08 03:20:45;;;;;;;16.20;14.50;;;;;;;10.23;100.00;98602.59;5053468;28;20259;-70
2022/05/08 03:23:12;;;;;;;14.27;12.97;;;;;;;10.11;100.00;98591.75;5053499;28;20201;-70
2022/05/08 03:25:38;;;;;;;14.77;13.10;;;;;;;10.15;100.00;98608.94;5054163;28;20216;-70
2022/05/08 03:28:05;;;;;;;14.10;12.90;;;;;;;10.11;100.00;98606.88;5053274;28;20274;-70
2022/05/08 03:30:31;;;;;;;13.57;12.27;;;;;;;10.07;100.00;98606.47;5053652;28;20205;-70
2022/05/08 03:32:58;;;;;;;13.30;11.90;;;;;;;10.07;100.00;98606.47;5053204;28;20228;-70
2022/05/08 03:35:25;;;;;;;13.07;11.97;;;;;;;10.06;100.00;98601.34;5053356;28;20212;-70
2022/05/08 03:37:51;;;;;;;13.67;12.37;;;;;;;10.07;100.00;98592.34;5052900;28;20229;-70
2022/05/08 03:40:17;;;;;;;13.83;12.33;;;;;;;10.00;100.00;98594.97;5053685;28;20521;-70
2022/05/08 03:42:44;;;;;;;13.27;11.97;;;;;;;9.93;100.00;98598.63;5053203;28;20208;-70
2022/05/08 03:45:11;;;;;;;13.80;12.50;;;;;;;9.92;100.00;98595.13;5053754;28;20205;-70
2022/05/08 03:47:37;;;;;;;12.97;11.80;;;;;;;9.90;100.00;98599.03;5053033;28;20225;-70
2022/05/08 03:50:06;;;;;;;13.57;12.23;;;;;;;9.90;100.00;98591.06;5052921;28;20216;-70
2022/05/08 03:52:32;;;;;;;14.23;12.73;;;;;;;9.86;100.00;98597.81;5052751;28;20295;-70
2022/05/08 03:54:59;;;;;;;14.07;12.77;;;;;;;9.92;100.00;98602.31;5053124;28;20218;-70
2022/05/08 03:57:26;;;;;;;13.57;12.37;;;;;;;9.93;100.00;98604.78;5052837;28;20719;-70
2022/05/08 03:59:53;;;;;;;13.23;12.03;;;;;;;9.93;100.00;98598.63;5053508;28;20205;-70
2022/05/08 04:02:19;;;;;;;13.67;12.47;;;;;;;9.83;100.00;98604.31;5057050;28;20207;-70
2022/05/08 04:04:45;;;;;;;13.30;12.20;;;;;;;9.84;100.00;98605.97;5056905;28;20564;-70
2022/05/08 04:07:12;;;;;;;14.10;12.80;;;;;;;9.84;100.00;98605.97;5056837;28;20225;-70
2022/05/08 04:09:38;;;;;;;14.97;13.57;;;;;;;9.89;100.00;98602.69;5056671;28;20223;-70
2022/05/08 04:12:05;;;;;;;15.03;13.63;;;;;;;9.96;100.00;98608.84;5056530;28;20664;-70
2022/05/08 04:14:31;;;;;;;16.93;15.20;;;;;;;10.04;100.00;98606.00;5056702;28;20228;-70
2022/05/08 04:16:59;;;;;;;17.07;15.47;;;;;;;9.99;100.00;98598.66;5056711;28;20209;-70
2022/05/08 04:19:25;;;;;;;17.57;15.77;;;;;;;9.94;100.00;98605.56;5056731;28;20209;-70
2022/05/08 04:24:16;;;;;;;17.07;15.23;;;;;;;9.97;100.00;98606.00;5056539;28;20578;-70
2022/05/08 04:24:40;;;;;;;16.90;15.37;;;;;;;10.02;100.00;98610.69;5056266;28;20250;-70
2022/05/08 04:27:07;;;;;;;18.30;16.60;;;;;;;10.00;100.00;98618.06;5057025;28;20236;-70
2022/05/08 04:29:33;;;;;;;16.87;15.37;;;;;;;9.97;100.00;98613.16;5056517;28;20205;-70
2022/05/08 04:32:00;;;;;;;18.77;17.17;;;;;;;9.95;100.00;98613.34;5056545;28;20215;-70
2022/05/08 04:34:26;;;;;;;18.60;16.93;;;;;;;9.99;100.00;98616.41;5056092;28;20692;-70
2022/05/08 04:36:52;;;;;;;18.40;16.67;;;;;;;9.96;100.00;98616.81;5056297;28;20201;-70
2022/05/08 04:39:19;;;;;;;18.70;17.03;;;;;;;10.06;100.00;98619.94;5056320;28;20215;-70
2022/05/08 04:41:45;;;;;;;19.53;17.70;;;;;;;10.05;100.00;98624.41;5056202;28;20205;-70
2022/05/08 04:44:11;;;;;;;17.30;15.80;;;;;;;10.08;100.00;98625.84;5055979;28;20201;-70
2022/05/08 04:46:38;;;;;;;17.73;16.00;;;;;;;10.09;100.00;98628.31;5055923;28;20217;-70
2022/05/08 04:49:04;;;;;;;18.20;16.30;;;;;;;10.07;100.00;98633.03;5056138;28;20252;-70
2022/05/08 04:51:31;;;;;;;18.13;16.57;;;;;;;10.11;100.00;98630.78;5055837;28;20664;-70
2022/05/08 04:53:57;;;;;;;20.30;18.23;;;;;;;10.15;100.00;98635.50;5055678;28;20236;-70
2022/05/08 04:56:24;;;;;;;19.60;17.80;;;;;;;10.16;100.00;98638.94;5056018;28;20208;-70
2022/05/08 04:58:51;;;;;;;19.50;17.60;;;;;;;10.18;100.00;98639.59;5055866;28;20606;-70
2022/05/08 05:01:17;;;;;;;18.93;17.33;;;;;;;10.22;100.00;98646.94;5056029;28;20209;-70
2022/05/08 05:03:44;;;;;;;20.97;18.80;;;;;;;10.16;100.00;98641.63;5055896;28;20201;-70
2022/05/08 05:06:11;;;;;;;18.93;17.00;;;;;;;10.19;100.00;98641.22;5055517;28;20259;-70
2022/05/08 05:08:37;;;;;;;18.80;17.13;;;;;;;10.19;100.00;98651.84;5055742;28;20228;-69
2022/05/08 05:11:08;;;;;;;19.07;17.37;;;;;;;10.21;100.00;98642.66;5055546;28;20219;-70
2022/05/08 05:13:35;;;;;;;18.60;16.97;;;;;;;10.29;100.00;98649.59;5054669;28;20221;-70
2022/05/08 05:16:01;;;;;;;17.07;15.50;;;;;;;10.26;100.00;98648.19;5055695;28;20212;-70
2022/05/08 05:18:28;;;;;;;15.67;14.23;;;;;;;10.29;100.00;98652.25;5056199;28;20233;-69
2022/05/08 05:20:54;;;;;;;15.10;13.70;;;;;;;10.34;100.00;98658.63;5055604;28;20209;-70
2022/05/08 05:23:21;;;;;;;15.03;13.50;;;;;;;10.35;100.00;98656.75;5055539;28;20204;-70
2022/05/08 05:25:47;;;;;;;15.23;13.90;;;;;;;10.33;100.00;98651.63;5055553;28;20216;-70
2022/05/08 05:28:13;;;;;;;14.00;12.80;;;;;;;10.39;99.88;98660.66;5055075;28;20798;-70
2022/05/08 05:30:40;;;;;;;14.57;13.27;;;;;;;10.35;100.00;98656.75;5055711;28;20220;-70
2022/05/08 05:33:07;;;;;;;15.00;13.60;;;;;;;10.36;100.00;98666.41;5055337;28;20208;-70
2022/05/08 05:35:36;;;;;;;15.10;13.57;;;;;;;10.40;100.00;98663.13;5055214;28;20209;-70
2022/05/08 05:38:03;;;;;;;14.43;13.13;;;;;;;10.47;100.00;98657.81;5055176;28;20239;-70
2022/05/08 05:40:29;;;;;;;13.97;12.63;;;;;;;10.59;100.00;98658.84;5054875;28;20672;-70
2022/05/08 05:42:57;;;;;;;14.50;13.23;;;;;;;10.53;99.81;98664.97;5055212;28;20209;-70
2022/05/08 05:45:24;;;;;;;13.60;12.40;;;;;;;10.52;98.64;98664.16;5055435;28;20631;-70
2022/05/08 05:47:50;;;;;;;13.73;12.43;;;;;;;10.60;99.38;98665.78;5054988;28;20229;-70
2022/05/08 05:50:17;;;;;;;14.90;13.60;;;;;;;10.63;99.20;98665.38;5055023;28;20555;-70
2022/05/08 05:52:44;;;;;;;15.00;13.70;;;;;;;10.62;99.06;98664.56;5054680;28;20672;-70
2022/05/08 05:55:11;;;;;;;15.33;13.90;;;;;;;10.65;99.40;98666.81;5054920;28;20229;-70
2022/05/08 05:57:38;;;;;;;16.77;15.37;;;;;;;10.73;98.40;98668.47;5054818;28;20232;-70
2022/05/08 06:00:07;;;;;;;16.27;14.67;;;;;;;10.77;98.40;98667.03;5054872;28;20208;-70
2022/05/08 06:02:34;;;;;;;15.77;14.27;;;;;;;10.79;99.22;98664.97;5054791;28;20209;-70
2022/05/08 06:05:00;;;;;;;17.00;15.50;;;;;;;10.82;98.99;98683.19;5054796;28;20212;-70
2022/05/08 06:07:26;;;;;;;18.53;16.83;;;;;;;10.86;100.00;98679.91;5054639;28;20225;-70
2022/05/08 06:09:53;;;;;;;19.23;16.17;;;;;;;10.90;100.00;98680.28;5054648;28;20205;-70
2022/05/08 06:12:19;;;;;;;19.43;17.50;;;;;;;10.96;100.00;98674.97;5054636;28;20205;-70
2022/05/08 06:14:46;;;;;;;18.33;16.73;;;;;;;11.03;99.44;98689.09;5054503;28;20228;-70
2022/05/08 06:17:13;;;;;;;18.67;16.87;;;;;;;11.15;98.97;98686.63;5054447;28;20299;-70
2022/05/08 06:19:40;;;;;;;18.40;16.77;;;;;;;11.26;98.05;98685.97;5054509;28;20201;-70
2022/05/08 06:22:06;;;;;;;18.07;16.47;;;;;;;11.32;97.28;98682.50;5054420;28;20201;-70
2022/05/08 06:24:33;;;;;;;18.70;16.87;;;;;;;11.38;97.94;98691.47;5054128;28;20201;-70
2022/05/08 06:26:59;;;;;;;18.50;16.90;;;;;;;11.37;97.16;98685.38;5054465;28;20212;-70
2022/05/08 06:29:25;;;;;;;18.97;17.17;;;;;;;11.42;96.63;98693.53;5054265;28;20217;-70
2022/05/08 06:31:52;;;;;;;18.20;16.70;;;;;;;11.41;97.76;98689.25;5054237;28;20209;-70
2022/05/08 06:34:19;;;;;;;18.47;16.80;;;;;;;11.56;97.67;98688.97;5054028;28;20221;-71
2022/05/08 06:36:46;;;;;;;18.53;16.77;;;;;;;11.64;96.66;98694.94;5054202;28;20227;-70
2022/05/08 06:39:13;;;;;;;19.13;16.80;;;;;;;11.69;95.95;98699.63;5053786;28;20210;-70
2022/05/08 06:41:40;;;;;;;18.73;16.87;;;;;;;11.66;96.03;98700.06;5054000;28;20213;-70
2022/05/08 06:44:06;;;;;;;17.90;16.40;;;;;;;11.73;95.70;98707.00;5053953;28;20202;-71
2022/05/08 06:46:35;;;;;;;18.20;16.70;;;;;;;11.81;96.13;98708.59;5054210;28;20212;-70
2022/05/08 06:49:02;;;;;;;18.40;16.60;;;;;;;11.88;94.36;98704.88;5053817;28;20258;-70
2022/05/08 06:51:29;;;;;;;18.17;16.43;;;;;;;11.97;94.46;98703.63;5053736;28;20750;-70
2022/05/08 06:53:56;;;;;;;18.47;16.67;;;;;;;12.14;93.81;98711.94;5053420;28;20612;-70
2022/05/08 06:56:22;;;;;;;18.53;16.90;;;;;;;12.22;93.33;98709.03;5053780;28;20208;-70
2022/05/08 07:01:36;;;;;;;18.00;16.30;;;;;;;12.43;92.51;98709.50;5053852;28;20641;-70
2022/05/08 07:04:03;;;;;;;17.43;16.03;;;;;;;12.42;91.72;98707.06;5053876;28;20260;-70
2022/05/08 07:06:30;;;;;;;18.73;16.93;;;;;;;12.61;91.30;98716.81;5053624;28;20297;-71
2022/05/08 07:08:58;;;;;;;17.47;15.97;;;;;;;12.83;90.94;98712.72;5053541;28;20233;-70
2022/05/08 07:11:25;;;;;;;17.03;15.53;;;;;;;12.87;90.91;98714.75;5053421;28;20216;-70
2022/05/08 07:13:52;;;;;;;16.37;14.93;;;;;;;12.83;89.66;98702.88;5053160;28;20714;-70
2022/05/08 07:16:19;;;;;;;17.73;16.17;;;;;;;12.89;88.88;98717.22;5053817;28;20216;-70
2022/05/08 07:18:45;;;;;;;16.00;14.60;;;;;;;12.95;89.52;98716.34;5053113;28;20239;-71
2022/05/08 07:21:12;;;;;;;17.13;15.63;;;;;;;12.97;89.52;98719.66;5053349;28;20261;-70
2022/05/08 07:23:38;;;;;;;16.90;15.50;;;;;;;12.93;89.60;98711.19;5052932;28;20567;-70
2022/05/08 07:26:05;;;;;;;16.67;15.17;;;;;;;13.20;88.07;98712.63;5053388;28;20206;-70
2022/05/08 07:28:31;;;;;;;15.40;13.90;;;;;;;13.25;87.16;98728.81;5053268;28;20320;-70
2022/05/08 07:30:58;;;;;;;16.37;14.70;;;;;;;13.15;87.42;98731.19;5053424;28;20212;-70
2022/05/08 07:33:24;;;;;;;15.13;13.83;;;;;;;13.29;87.22;98719.34;5053315;28;20209;-70
2022/05/08 07:38:34;;;;;;;16.10;14.70;;;;;;;13.54;85.01;98725.47;5057560;28;20278;-70
2022/05/08 07:41:02;;;;;;;15.10;13.90;;;;;;;13.41;87.28;98732.78;5057123;28;20209;-70
2022/05/08 07:43:28;;;;;;;15.20;13.90;;;;;;;13.46;86.37;98731.09;5057282;28;20556;-70
2022/05/08 07:45:55;;;;;;;15.27;13.97;;;;;;;13.31;85.84;98730.63;5056948;28;20568;-70
2022/05/08 07:48:21;;;;;;;16.00;14.70;;;;;;;13.47;86.76;98726.56;5057190;28;20590;-70
2022/05/08 07:50:47;;;;;;;16.10;14.37;;;;;;;13.56;87.06;98730.59;5057382;28;20201;-70
2022/05/08 07:53:14;;;;;;;15.77;14.43;;;;;;;13.72;86.01;98727.31;5056968;28;20255;-70
2022/05/08 07:55:41;;;;;;;14.63;13.50;;;;;;;14.06;83.02;98727.53;5056903;28;20221;-70
2022/05/08 07:58:09;;;;;;;14.70;13.40;;;;;;;13.81;82.84;98734.00;5057042;28;20236;-70
2022/05/08 08:00:36;;;;;;;14.73;13.47;;;;;;;13.93;84.79;98724.22;5056693;28;20541;-71
2022/05/08 08:03:03;;;;;;;15.13;13.63;;;;;;;14.01;84.95;98735.41;5056893;28;20259;-70
2022/05/08 08:05:30;;;;;;;14.20;13.07;;;;;;;14.15;84.29;98733.41;5056628;28;20775;-70
2022/05/08 08:07:56;;;;;;;13.77;12.67;;;;;;;14.27;83.26;98735.13;5056759;28;20236;-70
2022/05/08 08:10:22;;;;;;;14.47;13.07;;;;;;;14.29;82.12;98737.56;5057447;28;20664;-70
2022/05/08 08:12:49;;;;;;;14.27;12.97;;;;;;;14.60;81.00;98735.47;5057417;28;20205;-70
2022/05/08 08:15:15;;;;;;;14.73;13.37;;;;;;;14.63;80.86;98742.22;5056741;28;20216;-70
2022/05/08 08:17:42;;;;;;;14.80;13.37;;;;;;;14.78;81.77;98745.28;5056633;28;20232;-70
2022/05/08 08:20:09;;;;;;;14.37;13.10;;;;;;;15.15;79.46;98744.91;5056412;28;20205;-70
2022/05/08 08:22:35;;;;;;;14.00;12.63;;;;;;;15.35;77.04;98742.75;5056561;28;20227;-70
2022/05/08 08:25:02;;;;;;;13.70;12.40;;;;;;;15.13;77.10;98749.69;5056348;28;20237;-70
2022/05/08 08:27:28;;;;;;;13.93;12.70;;;;;;;14.97;78.68;98747.66;5056587;28;20221;-70
2022/05/08 08:29:55;;;;;;;13.20;12.00;;;;;;;15.00;78.84;98755.25;5057530;28;20216;-70
2022/05/08 08:32:22;;;;;;;13.50;12.37;;;;;;;15.06;79.19;98758.88;5056415;28;20205;-70
2022/05/08 08:34:50;;;;;;;14.07;12.77;;;;;;;15.36;79.38;98749.75;5056197;28;20232;-70
2022/05/08 08:37:16;;;;;;;15.17;13.77;;;;;;;15.14;78.40;98756.69;5056134;28;20260;-70
2022/05/08 08:39:43;;;;;;;14.13;12.73;;;;;;;14.51;78.76;98750.22;5055930;28;20275;-70
2022/05/08 08:42:27;;;;;;;14.50;13.30;;;;;;;15.02;78.65;98753.16;5056127;28;20263;-70
2022/05/08 08:47:48;;;;;;;13.77;12.67;;;;;;;15.29;77.90;98759.72;5011771;28;20225;-70
2022/05/08 08:50:16;;;;;;;12.70;11.60;;;;;;;15.68;76.53;98758.22;5055788;28;20205;-70
2022/05/08 08:52:43;;;;;;;12.83;11.70;;;;;;;15.89;74.92;98757.63;5055812;28;20216;-71
2022/05/08 08:55:10;;;;;;;13.60;12.40;;;;;;;15.44;75.57;98754.75;5055744;28;20224;-70
2022/05/08 08:57:37;;;;;;;12.83;11.57;;;;;;;15.69;75.96;98754.53;5055533;28;20225;-70
2022/05/08 09:00:08;;;;;;;12.47;11.47;;;;;;;15.42;74.20;98750.69;5055835;28;20231;-70
2022/05/08 09:02:35;;;;;;;12.60;11.50;;;;;;;16.10;75.00;98760.50;5055783;28;20193;-71
2022/05/08 09:05:07;;;;;;;12.03;11.13;;;;;;;16.67;72.79;98754.16;5055441;28;20267;-71
2022/05/08 09:07:38;;;;;;;11.30;10.30;;;;;;;16.67;71.07;98754.16;5055557;28;20225;-71
2022/05/08 09:10:11;;;;;;;10.93;9.93;;;;;;;17.10;69.07;98757.06;5055667;28;20221;-71
2022/05/08 09:12:44;;;;;;;13.40;12.20;;;;;;;16.69;69.63;98748.56;5055355;28;20213;-71
2022/05/08 09:15:22;;;;;;;10.13;9.33;;;;;;;16.91;69.81;98755.66;5055076;28;20703;-72
2022/05/08 09:17:51;;;;;;;10.73;9.73;;;;;;;16.79;69.48;98754.91;5055290;28;20225;-71
2022/05/08 09:20:35;;;;;;;11.37;10.13;;;;;;;17.30;67.87;98757.41;5055146;28;20205;-71
2022/05/08 09:23:15;;;;;;;10.87;9.97;;;;;;;17.39;65.85;98755.13;5054977;28;20632;-71
2022/05/08 09:25:45;;;;;;;9.80;8.90;;;;;;;17.55;64.97;98760.50;5055076;28;20281;-71
2022/05/08 09:28:13;;;;;;;9.17;8.30;;;;;;;17.65;65.87;98746.41;5055705;28;20225;-71
2022/05/08 09:30:56;;;;;;;9.10;8.23;;;;;;;17.81;63.80;98746.38;5055919;28;20259;-71
2022/05/08 09:33:27;;;;;;;8.77;7.93;;;;;;;17.77;63.85;98747.09;5055355;28;20220;-71
2022/05/08 09:35:55;;;;;;;8.90;8.10;;;;;;;17.62;63.83;98747.72;5055116;28;20221;-72
2022/05/08 09:38:22;;;;;;;8.50;7.80;;;;;;;17.60;64.44;98739.06;5055168;28;20230;-71
2022/05/08 09:41:07;;;;;;;8.93;8.20;;;;;;;17.48;66.03;98737.53;5054997;28;20209;-71
2022/05/08 09:43:35;;;;;;;9.57;8.77;;;;;;;17.67;67.96;98738.91;5054691;28;20205;-71
2022/05/08 09:46:03;;;;;;;12.37;11.27;;;;;;;17.87;64.85;98740.00;5054606;28;20559;-71
2022/05/08 09:48:31;;;;;;;8.40;7.50;;;;;;;18.57;62.32;98735.50;5054900;28;20229;-71
2022/05/08 09:50:59;;;;;;;9.63;7.53;;;;;;;18.86;62.41;98747.63;5054769;28;20216;-71
2022/05/08 09:53:27;;;;;;;9.20;7.90;;;;;;;18.74;61.29;98738.09;5054365;28;20209;-71
2022/05/08 09:55:57;;;;;;;8.60;7.80;;;;;;;18.90;61.40;98737.97;5054719;28;20225;-71
2022/05/08 09:58:24;;;;;;;8.57;7.77;;;;;;;18.71;63.14;98731.34;5054299;28;20654;-71
2022/05/08 10:00:52;;;;;;;9.63;8.40;;;;;;;18.69;62.74;98735.34;5054583;28;20205;-71
2022/05/08 10:03:19;;;;;;;9.30;8.40;;;;;;;18.61;61.62;98728.53;5054398;28;20578;-71
2022/05/08 10:05:47;;;;;;;10.27;8.57;;;;;;;18.52;62.97;98730.06;5054592;28;20510;-71
2022/05/08 10:08:16;;;;;;;8.10;7.40;;;;;;;18.63;63.77;98730.97;5053935;28;20565;-71
2022/05/08 10:13:54;;;;;;;9.57;8.60;;;;;;;18.81;63.18;98728.72;5053533;28;20333;-71
2022/05/08 10:17:03;;;;;;;7.83;7.13;;;;;;;18.69;59.54;98722.69;5054235;28;20209;-70
2022/05/08 10:19:29;;;;;;;8.07;7.27;;;;;;;18.66;61.17;98725.91;5054444;28;20196;-71
2022/05/08 10:21:55;;;;;;;8.03;7.23;;;;;;;19.10;61.41;98729.28;5054116;28;20208;-70
2022/05/08 10:24:35;;;;;;;7.47;6.87;;;;;;;18.95;61.38;98721.84;5054301;28;20606;-70
2022/05/08 10:27:15;;;;;;;8.77;8.07;;;;;;;18.71;60.65;98733.19;5054058;28;20194;-70
2022/05/08 10:30:04;;;;;;;7.93;7.23;;;;;;;18.83;60.48;98723.09;5054240;28;20193;-71
2022/05/08 10:32:31;;;;;;;8.77;8.03;;;;;;;18.90;62.13;98721.00;5048176;28;20205;-71
2022/05/08 10:35:26;;;;;;;8.73;7.83;;;;;;;19.23;63.31;98720.78;5053985;28;20275;-71
2022/05/08 10:38:02;;;;;;;8.83;7.93;;;;;;;19.28;60.38;98713.53;5053949;28;20271;-71
2022/05/08 10:40:28;;;;;;;8.37;7.70;;;;;;;19.06;61.06;98712.81;5053440;28;20208;-71
2022/05/08 10:42:55;;;;;;;7.87;7.07;;;;;;;19.23;57.71;98718.88;5053868;28;20304;-71
2022/05/08 10:45:43;;;;;;;7.70;7.00;;;;;;;19.21;56.70;98714.78;5053641;28;20208;-70
2022/05/08 10:48:12;;;;;;;6.67;5.97;;;;;;;19.14;57.41;98712.31;5053545;28;20239;-71
2022/05/08 10:50:53;;;;;;;6.93;5.97;;;;;;;19.20;56.97;98702.38;5053272;28;20616;-71
2022/05/08 10:53:32;;;;;;;6.60;5.97;;;;;;;19.62;55.26;98705.13;5053378;28;20219;-71
2022/05/08 10:56:10;;;;;;;6.20;5.60;;;;;;;19.63;57.77;98704.06;5053226;28;20606;-70
2022/05/08 10:58:39;;;;;;;6.70;6.00;;;;;;;19.77;58.02;98702.50;5053119;28;20279;-70
2022/05/08 11:01:09;;;;;;;6.30;5.80;;;;;;;20.00;56.67;98699.38;5053270;28;20672;-70
2022/05/08 11:03:36;;;;;;;6.90;6.30;;;;;;;20.02;56.82;98708.06;5054190;28;20201;-71
2022/05/08 11:06:04;;;;;;;6.87;5.60;;;;;;;20.32;51.89;98703.59;5053406;28;20212;-71
2022/05/08 11:08:33;;;;;;;6.87;5.13;;;;;;;20.20;53.84;98702.19;5053206;28;20275;-71
2022/05/08 11:11:03;;;;;;;5.17;4.77;;;;;;;20.29;53.79;98706.00;5052481;28;20201;-71
2022/05/08 11:13:51;;;;;;;4.50;4.10;;;;;;;20.10;50.31;98700.28;5053018;28;20262;-71
2022/05/08 11:16:38;;;;;;;4.67;3.70;;;;;;;20.29;47.41;98698.72;5053045;28;20205;-70
2022/05/08 11:19:06;;;;;;;6.27;4.83;;;;;;;20.26;51.72;98701.94;5053559;28;20233;-71
2022/05/08 11:21:33;;;;;;;4.80;4.33;;;;;;;20.19;50.77;98712.19;5053106;28;20216;-70
2022/05/08 11:24:00;;;;;;;5.23;4.03;;;;;;;20.19;50.11;98708.66;5053064;28;20216;-71
2022/05/08 11:26:34;;;;;;;7.57;4.33;;;;;;;20.06;49.58;98717.22;5053003;28;20291;-70
2022/05/08 11:29:01;;;;;;;6.63;4.30;;;;;;;20.27;48.94;98719.78;5053166;28;20251;-71
2022/05/08 11:31:29;;;;;;;5.10;4.70;;;;;;;19.90;48.39;98718.25;5053333;28;20227;-70
2022/05/08 11:36:54;;;;;;;7.57;4.90;;;;;;;20.17;49.25;98722.44;5011535;28;20278;-71
2022/05/08 11:39:21;;;;;;;6.30;4.47;;;;;;;20.31;50.07;98720.06;5042695;28;20211;-70
2022/05/08 11:41:50;;;;;;;5.13;4.57;;;;;;;20.44;50.25;98717.66;5052634;28;20667;-70
2022/05/08 11:44:16;;;;;;;5.40;4.90;;;;;;;20.29;49.53;98711.41;5053654;28;20209;-71